MUVR/VRA METAR and TAF weather

Enter ICAO airport designator
Station Type Date Time Source
MUVR METAR 2020/01/27 16:50 UTC NOAA

MUVR 271650Z VRB05KT 9000 FEW020 28/15 Q1015


Station Type Date Time Source
MUVR Decoded METAR 2020/01/27 16:50 UTC NOAA

Varadero, Matanzas, Cuba (MUVR) 23-08N 081-17W 3M
Jan 27, 2020 - 11:50 AM EST / 2020.01.27 1650 UTC
Wind: Variable at 6 MPH (5 KT):0
Visibility: 5 mile(s):0
Sky conditions: mostly clear
Temperature: 82 F (28 C)
Dew Point: 59 F (15 C)
Relative Humidity: 45%
Pressure (altimeter): 29.97 in. Hg (1015 hPa)
ob: MUVR 271650Z VRB05KT 9000 FEW020 28/15 Q1015
cycle: 17

Station Type Date Time Source
MUVR TAF 2020/01/27 18:03 UTC NOAA

TAF MUVR 271700Z 2718/2818 VRB03KT 9000 SCT020
BECMG 2815/2817 27008KT

Example: see airport list